createdAt,value
2018-06-02T00:00:37.512Z,22.29
2018-06-02T00:01:37.450Z,22.30
2018-06-02T00:02:37.393Z,22.26
2018-06-02T00:03:37.346Z,22.26
2018-06-02T00:04:37.282Z,22.28
2018-06-02T00:05:37.226Z,22.30
2018-06-02T00:06:37.171Z,22.25
2018-06-02T00:07:37.108Z,22.25
2018-06-02T00:08:37.054Z,22.28
2018-06-02T00:09:36.992Z,22.28
2018-06-02T00:10:36.939Z,22.22
2018-06-02T00:11:36.880Z,22.15
2018-06-02T00:12:36.828Z,22.06
2018-06-02T00:13:36.765Z,22.06
2018-06-02T00:14:36.706Z,21.99
2018-06-02T00:15:36.655Z,21.98
2018-06-02T00:16:36.589Z,21.96
2018-06-02T00:17:36.536Z,21.89
2018-06-02T00:18:36.483Z,22.00
2018-06-02T00:19:36.420Z,21.98
2018-06-02T00:20:36.364Z,21.89
2018-06-02T00:21:36.305Z,21.91
2018-06-02T00:22:36.247Z,21.95
2018-06-02T00:23:36.191Z,21.99
2018-06-02T00:24:36.144Z,21.95
2018-06-02T00:25:36.075Z,21.91
2018-06-02T00:26:36.019Z,21.95
2018-06-02T00:27:35.962Z,21.92
2018-06-02T00:28:35.905Z,21.95
2018-06-02T00:29:35.847Z,21.92
2018-06-02T00:30:35.783Z,21.85
2018-06-02T00:31:35.734Z,22.00
2018-06-02T00:32:35.672Z,21.95
2018-06-02T00:33:35.615Z,22.07
2018-06-02T00:34:35.558Z,21.95
2018-06-02T00:35:35.500Z,21.92
2018-06-02T00:36:35.445Z,22.02
2018-06-02T00:37:35.389Z,21.98
2018-06-02T00:38:35.331Z,21.89
2018-06-02T00:39:35.274Z,21.89
2018-06-02T00:40:35.216Z,21.88
2018-06-02T00:41:35.160Z,21.93
2018-06-02T00:42:35.100Z,21.89
2018-06-02T00:43:35.043Z,22.00
2018-06-02T00:44:34.987Z,22.02
2018-06-02T00:45:34.925Z,22.15
2018-06-02T00:46:34.874Z,22.15
2018-06-02T00:47:34.811Z,22.17
2018-06-02T00:48:34.799Z,22.18
2018-06-02T00:49:34.704Z,22.17
2018-06-02T00:50:34.638Z,22.20
2018-06-02T00:51:34.581Z,22.00
2018-06-02T00:52:34.525Z,22.02
2018-06-02T00:53:34.465Z,21.91
2018-06-02T00:54:34.410Z,21.79
2018-06-02T00:55:34.357Z,21.88
2018-06-02T00:56:34.298Z,21.92
2018-06-02T00:57:34.237Z,21.98
2018-06-02T00:58:34.182Z,21.85
2018-06-02T00:59:34.122Z,21.99
2018-06-02T01:00:34.063Z,21.95
2018-06-02T01:01:34.007Z,21.98
2018-06-02T01:02:33.950Z,22.02
2018-06-02T01:03:33.895Z,21.96
2018-06-02T01:04:33.837Z,21.99
2018-06-02T01:05:33.780Z,21.99
2018-06-02T01:06:33.720Z,21.96
2018-06-02T01:07:33.663Z,21.95
2018-06-02T01:08:33.607Z,21.93
2018-06-02T01:09:33.547Z,21.93
2018-06-02T01:10:33.491Z,21.96
2018-06-02T01:11:33.431Z,21.88
2018-06-02T01:12:33.376Z,21.92
2018-06-02T01:13:33.316Z,21.98
2018-06-02T01:14:33.262Z,21.99
2018-06-02T01:15:33.203Z,21.99
2018-06-02T01:16:33.146Z,21.98
2018-06-02T01:17:33.088Z,22.00
2018-06-02T01:18:33.031Z,21.99
2018-06-02T01:19:32.971Z,21.92
2018-06-02T01:20:32.913Z,22.02
2018-06-02T01:21:32.859Z,21.99
2018-06-02T01:22:32.799Z,21.99
2018-06-02T01:23:32.744Z,21.93
2018-06-02T01:24:32.683Z,21.96
2018-06-02T01:25:32.627Z,21.99
2018-06-02T01:26:32.570Z,22.02
2018-06-02T01:27:32.515Z,22.00
2018-06-02T01:28:32.456Z,22.00
2018-06-02T01:29:32.399Z,22.07
2018-06-02T01:30:32.342Z,21.95
2018-06-02T01:31:32.286Z,22.08
2018-06-02T01:32:32.225Z,21.96
2018-06-02T01:33:32.174Z,21.92
2018-06-02T01:34:32.111Z,21.96
2018-06-02T01:35:32.052Z,22.07
2018-06-02T01:36:31.996Z,21.99
2018-06-02T01:37:31.938Z,22.10
2018-06-02T01:38:31.882Z,22.07
2018-06-02T01:39:31.827Z,21.99
2018-06-02T01:40:31.768Z,22.06
2018-06-02T01:41:31.714Z,22.04
2018-06-02T01:42:31.658Z,22.04
2018-06-02T01:43:31.591Z,22.02
2018-06-02T01:44:31.535Z,21.99
2018-06-02T01:45:31.480Z,22.04
2018-06-02T01:46:31.420Z,22.08
2018-06-02T01:47:31.371Z,22.04
2018-06-02T01:48:31.307Z,22.02
2018-06-02T01:49:31.254Z,22.07
2018-06-02T01:50:31.192Z,22.06
2018-06-02T01:51:31.133Z,22.06
2018-06-02T01:52:31.077Z,22.06
2018-06-02T01:53:31.022Z,22.11
2018-06-02T01:54:30.965Z,22.07
2018-06-02T01:55:30.904Z,22.07
2018-06-02T01:56:30.849Z,22.06
2018-06-02T01:57:30.792Z,22.06
2018-06-02T01:58:30.731Z,22.04
2018-06-02T01:59:30.677Z,22.07
2018-06-02T02:00:30.622Z,22.11
2018-06-02T02:01:30.561Z,22.11
2018-06-02T02:02:30.505Z,22.04
2018-06-02T02:03:30.445Z,22.02
2018-06-02T02:04:30.389Z,21.98
2018-06-02T02:05:30.329Z,21.96
2018-06-02T02:06:30.277Z,21.98
2018-06-02T02:07:30.215Z,21.92
2018-06-02T02:08:30.158Z,22.00
2018-06-02T02:09:30.101Z,21.98
2018-06-02T02:10:30.046Z,22.07
2018-06-02T02:11:29.987Z,21.98
2018-06-02T02:12:29.931Z,22.00
2018-06-02T02:13:29.870Z,22.00
2018-06-02T02:14:29.816Z,21.99
2018-06-02T02:15:29.755Z,21.92
2018-06-02T02:16:29.699Z,22.04
2018-06-02T02:17:29.639Z,21.85
2018-06-02T02:18:29.582Z,21.96
2018-06-02T02:19:29.525Z,21.96
2018-06-02T02:20:29.473Z,21.98
2018-06-02T02:21:29.409Z,22.02
2018-06-02T02:22:29.358Z,21.99
2018-06-02T02:23:29.295Z,21.96
2018-06-02T02:24:29.236Z,22.07
2018-06-02T02:25:29.183Z,22.02
2018-06-02T02:26:29.125Z,22.06
2018-06-02T02:27:29.064Z,22.00
2018-06-02T02:28:29.050Z,21.99
2018-06-02T02:29:28.953Z,21.89
2018-06-02T02:30:28.893Z,21.92
2018-06-02T02:31:28.840Z,21.89
2018-06-02T02:32:28.777Z,21.96
2018-06-02T02:33:28.721Z,21.88
2018-06-02T02:34:28.662Z,21.91
2018-06-02T02:35:28.603Z,21.91
2018-06-02T02:36:28.544Z,21.91
2018-06-02T02:37:28.487Z,21.89
2018-06-02T02:38:28.429Z,21.91
2018-06-02T02:39:28.375Z,21.85
2018-06-02T02:40:28.315Z,21.92
2018-06-02T02:41:28.258Z,21.89
2018-06-02T02:42:28.199Z,21.96
2018-06-02T02:43:28.142Z,21.91
2018-06-02T02:44:28.091Z,21.85
2018-06-02T02:45:28.028Z,21.96
2018-06-02T02:46:27.969Z,21.88
2018-06-02T02:47:27.912Z,21.93
2018-06-02T02:48:27.853Z,21.99
2018-06-02T02:49:27.795Z,21.99
2018-06-02T02:50:27.736Z,21.93
2018-06-02T02:51:27.684Z,21.98
2018-06-02T02:52:27.627Z,21.95
2018-06-02T02:53:27.571Z,22.04
2018-06-02T02:54:27.509Z,21.93
2018-06-02T02:55:27.449Z,21.98
2018-06-02T02:56:27.391Z,21.95
2018-06-02T02:57:27.336Z,21.91
2018-06-02T02:58:27.279Z,21.98
2018-06-02T02:59:27.219Z,22.04
2018-06-02T03:00:27.161Z,21.89
2018-06-02T03:01:27.104Z,21.93
2018-06-02T03:02:27.046Z,21.89
2018-06-02T03:03:26.992Z,21.91
2018-06-02T03:04:26.929Z,21.93
2018-06-02T03:05:26.881Z,21.96
2018-06-02T03:06:26.818Z,21.91
2018-06-02T03:07:26.759Z,21.93
2018-06-02T03:08:26.706Z,21.85
2018-06-02T03:09:26.644Z,21.93
2018-06-02T03:10:26.586Z,21.88
2018-06-02T03:11:26.531Z,21.91
2018-06-02T03:12:26.470Z,21.93
2018-06-02T03:13:26.408Z,21.98
2018-06-02T03:14:26.358Z,21.92
2018-06-02T03:15:26.303Z,21.96
2018-06-02T03:16:26.243Z,21.96
2018-06-02T03:17:26.186Z,21.98
2018-06-02T03:18:26.126Z,21.99
2018-06-02T03:19:26.068Z,21.99
2018-06-02T03:20:26.013Z,21.96
2018-06-02T03:21:25.952Z,21.95
2018-06-02T03:22:25.895Z,21.95
2018-06-02T03:23:25.837Z,21.91
2018-06-02T03:24:25.780Z,21.99
2018-06-02T03:25:25.721Z,21.98
2018-06-02T03:26:25.662Z,21.95
2018-06-02T03:27:25.605Z,21.98
2018-06-02T03:28:25.547Z,21.93
2018-06-02T03:29:25.515Z,21.88
2018-06-02T03:30:25.434Z,21.91
2018-06-02T03:31:25.379Z,21.82
2018-06-02T03:32:25.317Z,21.64
2018-06-02T03:33:25.262Z,21.67
2018-06-02T03:34:25.204Z,21.67
2018-06-02T03:35:25.145Z,21.73
2018-06-02T03:36:25.088Z,21.69
2018-06-02T03:37:25.031Z,21.76
2018-06-02T03:38:24.971Z,21.75
2018-06-02T03:39:24.912Z,21.73
2018-06-02T03:40:24.853Z,21.64
2018-06-02T03:41:24.797Z,21.76
2018-06-02T03:42:24.742Z,21.69
2018-06-02T03:43:24.684Z,21.80
2018-06-02T03:44:24.626Z,21.82
2018-06-02T03:45:24.566Z,21.77
2018-06-02T03:46:24.517Z,21.73
2018-06-02T03:47:24.452Z,21.75
2018-06-02T03:48:24.394Z,21.76
2018-06-02T03:49:24.341Z,21.89
2018-06-02T03:50:24.289Z,21.77
2018-06-02T03:51:24.219Z,21.89
2018-06-02T03:52:24.165Z,21.76
2018-06-02T03:53:24.103Z,21.95
2018-06-02T03:54:24.047Z,21.85
2018-06-02T03:55:23.992Z,21.73
2018-06-02T03:56:23.932Z,21.88
2018-06-02T03:57:23.876Z,21.89
2018-06-02T03:58:23.817Z,21.91
2018-06-02T03:59:23.759Z,21.95
2018-06-02T04:00:23.703Z,21.88
2018-06-02T04:01:23.646Z,21.91
2018-06-02T04:02:23.593Z,21.89
2018-06-02T04:03:23.528Z,21.89
2018-06-02T04:04:23.471Z,21.91
2018-06-02T04:05:23.415Z,21.82
2018-06-02T04:06:23.353Z,21.91
2018-06-02T04:07:23.300Z,21.85
2018-06-02T04:08:23.240Z,21.89
2018-06-02T04:09:23.184Z,21.96
2018-06-02T04:10:23.125Z,21.96
2018-06-02T04:11:23.068Z,21.89
2018-06-02T04:12:23.010Z,21.89
2018-06-02T04:13:22.953Z,21.92
2018-06-02T04:14:22.894Z,21.95
2018-06-02T04:15:22.839Z,21.75
2018-06-02T04:16:22.780Z,21.79
2018-06-02T04:17:22.721Z,21.79
2018-06-02T04:18:22.664Z,21.69
2018-06-02T04:19:22.612Z,21.69
2018-06-02T04:20:22.549Z,21.70
2018-06-02T04:21:22.493Z,21.69
2018-06-02T04:22:22.435Z,21.67
2018-06-02T04:23:22.378Z,21.67
2018-06-02T04:24:22.319Z,21.58
2018-06-02T04:25:22.276Z,21.62
2018-06-02T04:26:22.205Z,21.50
2018-06-02T04:27:22.148Z,21.50
2018-06-02T04:28:22.089Z,21.54
2018-06-02T04:29:22.033Z,21.54
2018-06-02T04:30:21.972Z,21.58
2018-06-02T04:31:21.911Z,21.52
2018-06-02T04:32:21.856Z,21.54
2018-06-02T04:33:21.805Z,21.67
2018-06-02T04:34:21.744Z,21.61
2018-06-02T04:35:21.682Z,21.72
2018-06-02T04:36:21.632Z,21.69
2018-06-02T04:37:21.567Z,21.73
2018-06-02T04:38:21.510Z,21.66
2018-06-02T04:39:21.455Z,21.57
2018-06-02T04:40:21.395Z,21.64
2018-06-02T04:41:21.343Z,21.69
2018-06-02T04:42:21.286Z,21.72
2018-06-02T04:43:21.225Z,21.67
2018-06-02T04:44:21.163Z,21.73
2018-06-02T04:45:21.106Z,21.76
2018-06-02T04:46:21.048Z,21.80
2018-06-02T04:47:20.995Z,21.72
2018-06-02T04:48:20.940Z,21.76
2018-06-02T04:49:20.874Z,21.73
2018-06-02T04:50:20.818Z,21.77
2018-06-02T04:51:20.764Z,21.82
2018-06-02T04:52:20.704Z,21.82
2018-06-02T04:53:20.645Z,21.83
2018-06-02T04:54:20.594Z,21.95
2018-06-02T04:55:20.531Z,21.93
2018-06-02T04:56:20.473Z,21.91
2018-06-02T04:57:20.414Z,21.80
2018-06-02T04:58:20.355Z,21.95
2018-06-02T04:59:20.302Z,21.89
2018-06-02T05:00:20.244Z,21.85
2018-06-02T05:01:20.191Z,21.83
2018-06-02T05:02:20.143Z,21.91
2018-06-02T05:03:20.116Z,21.89
2018-06-02T05:04:20.014Z,21.79
2018-06-02T05:05:19.958Z,21.72
2018-06-02T05:06:19.898Z,21.73
2018-06-02T05:07:19.839Z,21.70
2018-06-02T05:08:19.783Z,21.75
2018-06-02T05:09:19.725Z,21.69
2018-06-02T05:10:19.669Z,21.72
2018-06-02T05:11:19.612Z,21.57
2018-06-02T05:12:19.558Z,21.66
2018-06-02T05:13:19.497Z,21.70
2018-06-02T05:14:19.443Z,21.70
2018-06-02T05:15:19.381Z,21.64
2018-06-02T05:16:19.322Z,21.60
2018-06-02T05:17:19.263Z,21.72
2018-06-02T05:18:19.208Z,21.67
2018-06-02T05:19:19.152Z,21.61
2018-06-02T05:20:19.096Z,21.70
2018-06-02T05:21:19.035Z,21.62
2018-06-02T05:22:18.978Z,21.61
2018-06-02T05:23:18.926Z,21.60
2018-06-02T05:24:18.869Z,21.55
2018-06-02T05:25:18.812Z,21.40
2018-06-02T05:26:18.754Z,21.55
2018-06-02T05:27:18.687Z,21.58
2018-06-02T05:28:18.632Z,21.55
2018-06-02T05:29:18.579Z,21.55
2018-06-02T05:30:18.517Z,21.61
2018-06-02T05:31:18.464Z,21.57
2018-06-02T05:32:18.411Z,21.55
2018-06-02T05:33:18.346Z,21.61
2018-06-02T05:34:18.289Z,21.64
2018-06-02T05:35:18.271Z,21.66
2018-06-02T05:36:18.170Z,21.70
2018-06-02T05:37:18.116Z,21.62
2018-06-02T05:38:18.057Z,21.66
2018-06-02T05:39:17.999Z,21.75
2018-06-02T05:40:17.944Z,21.76
2018-06-02T05:41:17.883Z,21.83
2018-06-02T05:42:17.827Z,21.75
2018-06-02T05:43:17.773Z,21.89
2018-06-02T05:44:17.712Z,21.85
2018-06-02T05:45:17.655Z,21.93
2018-06-02T05:46:17.604Z,21.92
2018-06-02T05:47:17.540Z,22.04
2018-06-02T05:48:17.481Z,22.11
2018-06-02T05:49:17.422Z,22.18
2018-06-02T05:50:17.368Z,22.15
2018-06-02T05:51:17.311Z,22.22
2018-06-02T05:52:17.252Z,22.17
2018-06-02T05:53:17.196Z,22.22
2018-06-02T05:54:17.137Z,22.30
2018-06-02T05:55:17.083Z,22.39
2018-06-02T05:56:17.023Z,22.33
2018-06-02T05:57:16.973Z,22.41
2018-06-02T05:58:16.910Z,22.38
2018-06-02T05:59:16.852Z,22.30
2018-06-02T06:00:16.794Z,22.33
2018-06-02T06:01:16.738Z,22.28
2018-06-02T06:02:16.678Z,22.28
2018-06-02T06:03:16.624Z,22.26
2018-06-02T06:04:16.567Z,22.33
2018-06-02T06:05:16.510Z,22.23
2018-06-02T06:06:16.453Z,22.28
2018-06-02T06:07:16.397Z,22.23
2018-06-02T06:08:16.337Z,22.20
2018-06-02T06:09:16.284Z,22.13
2018-06-02T06:10:16.224Z,22.22
2018-06-02T06:11:16.166Z,22.25
2018-06-02T06:12:16.112Z,22.28
2018-06-02T06:13:16.049Z,22.28
2018-06-02T06:14:16.001Z,22.39
2018-06-02T06:15:15.941Z,22.30
2018-06-02T06:16:15.882Z,22.43
2018-06-02T06:17:15.825Z,22.30
2018-06-02T06:18:15.769Z,22.45
2018-06-02T06:19:15.711Z,22.38
2018-06-02T06:20:15.654Z,22.44
2018-06-02T06:21:15.593Z,22.43
2018-06-02T06:22:15.539Z,22.26
2018-06-02T06:23:15.484Z,22.36
2018-06-02T06:24:15.427Z,22.29
2018-06-02T06:25:15.372Z,22.23
2018-06-02T06:26:15.310Z,22.41
2018-06-02T06:27:15.255Z,22.28
2018-06-02T06:28:15.198Z,22.29
2018-06-02T06:29:15.142Z,22.32
2018-06-02T06:30:15.084Z,22.32
2018-06-02T06:31:15.027Z,22.29
2018-06-02T06:32:14.967Z,22.33
2018-06-02T06:33:14.935Z,22.32
2018-06-02T06:34:14.854Z,22.45
2018-06-02T06:35:14.801Z,22.29
2018-06-02T06:36:14.742Z,22.33
2018-06-02T06:37:14.684Z,22.29
2018-06-02T06:38:14.626Z,22.39
2018-06-02T06:39:14.568Z,22.33
2018-06-02T06:40:14.520Z,22.30
2018-06-02T06:41:14.461Z,22.38
2018-06-02T06:42:14.399Z,22.44
2018-06-02T06:43:14.359Z,22.39
2018-06-02T06:44:14.301Z,22.43
2018-06-02T06:45:14.244Z,22.36
2018-06-02T06:46:14.218Z,22.44
2018-06-02T06:47:14.115Z,22.45
2018-06-02T06:48:14.062Z,22.47
2018-06-02T06:49:14.003Z,22.50
2018-06-02T06:50:13.943Z,22.47
2018-06-02T06:51:13.885Z,22.53
2018-06-02T06:52:13.836Z,22.55
2018-06-02T06:53:13.770Z,22.60
2018-06-02T06:54:13.713Z,22.63
2018-06-02T06:55:13.660Z,22.45
2018-06-02T06:56:13.602Z,22.57
2018-06-02T06:57:13.543Z,22.68
2018-06-02T06:58:13.487Z,22.72
2018-06-02T06:59:13.437Z,22.69
2018-06-02T07:00:13.375Z,22.83
2018-06-02T07:01:13.319Z,22.83
2018-06-02T07:02:13.262Z,22.83
2018-06-02T07:03:13.204Z,22.90
2018-06-02T07:04:13.149Z,22.91
2018-06-02T07:05:13.090Z,22.96
2018-06-02T07:06:13.038Z,22.98
2018-06-02T07:07:12.979Z,22.91
2018-06-02T07:08:12.924Z,22.98
2018-06-02T07:09:12.864Z,23.02
2018-06-02T07:10:12.814Z,23.09
2018-06-02T07:11:12.779Z,23.09
2018-06-02T07:12:12.714Z,23.24
2018-06-02T07:13:12.639Z,23.23
2018-06-02T07:14:12.591Z,23.25
2018-06-02T07:15:12.526Z,23.20
2018-06-02T07:16:12.474Z,23.32
2018-06-02T07:17:12.427Z,23.34
2018-06-02T07:18:12.359Z,23.28
2018-06-02T07:19:12.311Z,23.32
2018-06-02T07:20:12.289Z,23.39
2018-06-02T07:21:12.196Z,23.34
2018-06-02T07:22:12.134Z,23.37
2018-06-02T07:23:12.077Z,23.43
2018-06-02T07:24:12.037Z,23.50
2018-06-02T07:25:11.957Z,23.56
2018-06-02T07:26:11.923Z,23.55
2018-06-02T07:27:12.373Z,23.51
2018-06-02T07:28:11.793Z,23.48
2018-06-02T07:29:11.757Z,23.54
2018-06-02T07:30:11.688Z,23.56
2018-06-02T07:31:11.630Z,23.58
2018-06-02T07:32:11.571Z,23.62
2018-06-02T07:33:11.524Z,23.71
2018-06-02T07:34:11.459Z,23.71
2018-06-02T07:35:11.410Z,23.92
2018-06-02T07:36:11.409Z,23.98
2018-06-02T07:37:11.336Z,24.10
2018-06-02T07:38:11.689Z,24.20
2018-06-02T07:39:11.176Z,24.20
2018-06-02T07:40:11.149Z,24.38
2018-06-02T07:41:11.066Z,24.47
2018-06-02T07:42:11.019Z,24.65
2018-06-02T07:43:10.951Z,24.85
2018-06-02T07:44:10.896Z,24.92
2018-06-02T07:45:10.845Z,24.92
2018-06-02T07:46:10.787Z,24.99
2018-06-02T07:47:10.730Z,24.99
2018-06-02T07:48:10.677Z,25.17
2018-06-02T07:49:10.716Z,25.26
2018-06-02T07:50:10.565Z,25.16
2018-06-02T07:51:19.559Z,25.17
2018-06-02T07:53:05.924Z,25.06
2018-06-02T07:54:05.732Z,25.08
2018-06-02T07:55:59.069Z,25.25
2018-06-02T07:56:58.965Z,25.35
2018-06-02T07:57:58.929Z,25.50
2018-06-02T07:58:58.855Z,25.66
2018-06-02T08:00:01.598Z,25.77
2018-06-02T08:00:58.760Z,25.91
2018-06-02T08:01:58.982Z,26.10
2018-06-02T08:02:58.987Z,26.29
2018-06-02T08:04:00.835Z,26.26
2018-06-02T08:04:58.548Z,26.07
2018-06-02T08:05:58.476Z,25.88
2018-06-02T08:06:58.420Z,25.77
2018-06-02T08:07:58.365Z,25.59
2018-06-02T08:08:58.314Z,25.43
2018-06-02T08:09:58.253Z,25.35
2018-06-02T08:10:58.205Z,25.46
2018-06-02T08:11:58.158Z,25.47
2018-06-02T08:12:58.093Z,25.44
2018-06-02T08:13:58.036Z,25.44
2018-06-02T08:14:57.983Z,25.55
2018-06-02T08:15:57.932Z,25.66
2018-06-02T08:16:57.876Z,25.85
2018-06-02T08:17:57.825Z,25.90
2018-06-02T08:18:57.768Z,25.96
2018-06-02T08:19:57.711Z,26.10
2018-06-02T08:20:57.669Z,26.13
2018-06-02T08:21:57.603Z,26.25
2018-06-02T08:22:57.545Z,26.33
2018-06-02T08:23:57.510Z,26.45
2018-06-02T08:24:57.442Z,26.51
2018-06-02T08:25:57.388Z,26.43
2018-06-02T08:26:57.331Z,26.28
2018-06-02T08:27:57.286Z,26.34
2018-06-02T08:28:57.232Z,26.34
2018-06-02T08:29:57.171Z,26.25
2018-06-02T08:30:57.118Z,26.16
2018-06-02T08:31:57.062Z,25.96
2018-06-02T08:32:57.027Z,25.78
2018-06-02T08:33:56.965Z,25.63
2018-06-02T08:34:56.898Z,25.66
2018-06-02T08:35:56.848Z,25.69
2018-06-02T08:36:56.795Z,25.85
2018-06-02T08:37:56.738Z,25.87
2018-06-02T08:38:56.713Z,25.99
2018-06-02T08:39:56.640Z,26.06
2018-06-02T08:40:56.581Z,26.02
2018-06-02T08:41:56.548Z,26.03
2018-06-02T08:42:56.467Z,25.91
2018-06-02T08:43:56.430Z,25.90
2018-06-02T08:44:56.355Z,26.00
2018-06-02T08:45:56.326Z,26.10
2018-06-02T08:46:56.250Z,26.06
2018-06-02T08:47:56.194Z,26.28
2018-06-02T08:48:56.147Z,26.34
2018-06-02T08:49:56.086Z,26.40
2018-06-02T08:50:56.037Z,26.44
2018-06-02T08:51:55.980Z,26.44
2018-06-02T08:52:55.921Z,26.48
2018-06-02T08:53:55.871Z,26.68
2018-06-02T08:54:55.816Z,26.74
2018-06-02T08:55:55.761Z,26.81
2018-06-02T08:56:55.709Z,26.97
2018-06-02T08:57:55.658Z,27.07
2018-06-02T08:58:55.601Z,27.07
2018-06-02T08:59:55.542Z,27.03
2018-06-02T09:00:55.493Z,26.88
2018-06-02T09:01:55.439Z,26.88
2018-06-02T09:02:55.386Z,26.70
2018-06-02T09:03:55.332Z,26.59
2018-06-02T09:04:56.124Z,26.53
2018-06-02T09:05:55.231Z,26.23
2018-06-02T09:06:55.171Z,26.25
2018-06-02T09:07:55.118Z,26.34
2018-06-02T09:08:55.066Z,26.38
2018-06-02T09:09:55.020Z,26.52
2018-06-02T09:10:54.979Z,26.71
2018-06-02T09:11:54.905Z,26.56
2018-06-02T09:12:54.851Z,26.53
2018-06-02T09:13:54.794Z,26.44
2018-06-02T09:14:54.745Z,26.53
2018-06-02T09:15:54.686Z,26.52
2018-06-02T09:16:54.631Z,26.56
2018-06-02T09:17:54.576Z,26.60
2018-06-02T09:18:54.527Z,26.66
2018-06-02T09:19:54.476Z,26.73
2018-06-02T09:20:54.420Z,26.89
2018-06-02T09:21:54.363Z,26.96
2018-06-02T09:22:54.308Z,26.97
2018-06-02T09:23:54.257Z,27.21
2018-06-02T09:24:54.209Z,27.58
2018-06-02T09:25:54.167Z,27.82
2018-06-02T09:26:54.092Z,27.98
2018-06-02T09:27:54.231Z,27.82
2018-06-02T09:28:54.010Z,27.68
2018-06-02T09:29:53.933Z,27.45
2018-06-02T09:30:53.949Z,27.20
2018-06-02T09:31:53.827Z,27.17
2018-06-02T09:32:53.779Z,27.05
2018-06-02T09:33:53.722Z,27.20
2018-06-02T09:34:53.669Z,27.26
2018-06-02T09:35:53.616Z,27.35
2018-06-02T09:36:53.564Z,27.12
2018-06-02T09:37:53.585Z,26.95
2018-06-02T09:38:53.454Z,26.90
2018-06-02T09:39:53.499Z,26.80
2018-06-02T09:40:53.381Z,26.80
2018-06-02T09:41:53.297Z,26.85
2018-06-02T09:42:53.254Z,26.68
2018-06-02T09:43:53.205Z,26.66
2018-06-02T09:44:53.142Z,26.53
2018-06-02T09:45:53.081Z,26.56
2018-06-02T09:46:53.034Z,26.53
2018-06-02T09:47:52.981Z,26.48
2018-06-02T09:48:52.989Z,26.55
2018-06-02T09:49:52.870Z,26.75
2018-06-02T09:50:52.855Z,26.80
2018-06-02T09:51:52.767Z,26.90
2018-06-02T09:52:52.714Z,26.97
2018-06-02T09:53:52.659Z,26.99
2018-06-02T09:54:52.608Z,26.97
2018-06-02T09:55:52.595Z,26.97
2018-06-02T09:56:52.799Z,26.84
2018-06-02T09:57:52.457Z,26.84
2018-06-02T09:58:52.398Z,26.93
2018-06-02T09:59:52.424Z,26.88
2018-06-02T10:00:52.285Z,26.93
2018-06-02T10:01:52.254Z,26.93
2018-06-02T10:02:52.177Z,26.78
2018-06-02T10:03:52.124Z,26.78
2018-06-02T10:04:52.073Z,26.92
2018-06-02T10:05:52.017Z,27.12
2018-06-02T10:06:51.961Z,27.18
2018-06-02T10:07:51.908Z,27.32
2018-06-02T10:08:51.857Z,27.30
2018-06-02T10:09:51.801Z,27.32
2018-06-02T10:10:51.748Z,27.49
2018-06-02T10:11:51.704Z,27.74
2018-06-02T10:12:51.645Z,27.92
2018-06-02T10:13:51.593Z,27.82
2018-06-02T10:14:51.539Z,27.67
2018-06-02T10:15:51.485Z,27.32
2018-06-02T10:16:51.431Z,27.25
2018-06-02T10:17:51.377Z,27.30
2018-06-02T10:18:51.330Z,27.33
2018-06-02T10:19:51.275Z,27.29
2018-06-02T10:20:51.221Z,27.20
2018-06-02T10:21:51.180Z,27.33
2018-06-02T10:22:51.112Z,27.39
2018-06-02T10:23:51.058Z,27.36
2018-06-02T10:24:51.009Z,27.27
2018-06-02T10:25:50.956Z,27.22
2018-06-02T10:26:50.902Z,27.25
2018-06-02T10:27:50.853Z,27.35
2018-06-02T10:28:50.796Z,27.37
2018-06-02T10:29:50.739Z,27.48
2018-06-02T10:30:50.686Z,27.45
2018-06-02T10:31:50.637Z,27.42
2018-06-02T10:32:50.594Z,27.71
2018-06-02T10:33:50.530Z,27.98
2018-06-02T10:34:50.476Z,28.33
2018-06-02T10:35:50.422Z,28.51
2018-06-02T10:36:50.375Z,28.48
2018-06-02T10:37:50.327Z,28.49
2018-06-02T10:38:50.275Z,28.57
2018-06-02T10:39:50.221Z,28.62
2018-06-02T10:40:50.161Z,28.74
2018-06-02T10:41:50.106Z,28.75
2018-06-02T10:42:50.059Z,28.76
2018-06-02T10:43:50.002Z,28.79
2018-06-02T10:44:49.955Z,28.54
2018-06-02T10:45:49.917Z,28.57
2018-06-02T10:46:49.847Z,28.47
2018-06-02T10:47:49.797Z,28.42
2018-06-02T10:48:49.741Z,28.51
2018-06-02T10:49:49.690Z,28.33
2018-06-02T10:50:49.647Z,28.32
2018-06-02T10:51:49.590Z,28.17
2018-06-02T10:52:49.527Z,27.96
2018-06-02T10:53:49.480Z,27.74
2018-06-02T10:54:49.430Z,27.59
2018-06-02T10:55:49.376Z,27.48
2018-06-02T10:56:49.323Z,27.60
2018-06-02T10:57:49.276Z,27.60
2018-06-02T10:58:49.223Z,27.44
2018-06-02T10:59:49.168Z,27.39
2018-06-02T11:00:49.112Z,27.58
2018-06-02T11:01:49.129Z,27.63
2018-06-02T11:02:49.004Z,27.75
2018-06-02T11:03:48.961Z,27.86
2018-06-02T11:04:48.907Z,27.85
2018-06-02T11:05:48.851Z,27.85
2018-06-02T11:06:48.795Z,27.93
2018-06-02T11:07:48.747Z,28.01
2018-06-02T11:08:48.701Z,28.22
2018-06-02T11:09:48.652Z,28.59
2018-06-02T11:10:48.592Z,28.64
2018-06-02T11:11:48.542Z,28.48
2018-06-02T11:12:48.490Z,28.45
2018-06-02T11:13:48.440Z,28.52
2018-06-02T11:14:48.386Z,28.60
2018-06-02T11:15:48.336Z,28.66
2018-06-02T11:16:48.292Z,29.10
2018-06-02T11:17:48.246Z,29.36
2018-06-02T11:18:48.249Z,29.63
2018-06-02T11:19:48.146Z,29.71
2018-06-02T11:20:48.086Z,29.50
2018-06-02T11:21:48.040Z,29.27
2018-06-02T11:22:47.994Z,28.81
2018-06-02T11:23:47.944Z,28.51
2018-06-02T11:24:47.885Z,28.12
2018-06-02T11:25:47.890Z,28.12
2018-06-02T11:26:47.785Z,28.27
2018-06-02T11:27:47.736Z,28.60
2018-06-02T11:28:47.690Z,28.94
2018-06-02T11:29:47.635Z,29.35
2018-06-02T11:30:47.587Z,29.78
2018-06-02T11:31:47.538Z,30.09
2018-06-02T11:32:47.488Z,30.19
2018-06-02T11:33:47.448Z,30.51
2018-06-02T11:34:47.391Z,30.66
2018-06-02T11:35:47.357Z,30.81
2018-06-02T11:36:47.298Z,30.68
2018-06-02T11:37:47.271Z,30.66
2018-06-02T11:38:47.191Z,30.73
2018-06-02T11:39:47.147Z,30.69
2018-06-02T11:40:47.100Z,30.59
2018-06-02T11:41:47.052Z,30.24
2018-06-02T11:42:47.007Z,30.03
2018-06-02T11:43:46.953Z,30.05
2018-06-02T11:44:46.907Z,30.50
2018-06-02T11:45:46.859Z,30.73
2018-06-02T11:46:46.819Z,30.97
2018-06-02T11:47:46.765Z,30.92
2018-06-02T11:48:46.731Z,31.10
2018-06-02T11:49:46.674Z,31.22
2018-06-02T11:50:46.630Z,31.28
2018-06-02T11:51:46.583Z,31.62
2018-06-02T11:52:46.531Z,32.00
2018-06-02T11:53:46.493Z,31.76
2018-06-02T11:54:46.450Z,31.66
2018-06-02T11:55:46.406Z,31.36
2018-06-02T11:56:46.357Z,31.14
2018-06-02T11:57:46.305Z,30.69
2018-06-02T11:58:46.269Z,30.69
2018-06-02T11:59:46.251Z,30.72
2018-06-02T12:00:46.204Z,30.92
2018-06-02T12:01:46.130Z,31.31
2018-06-02T12:02:46.093Z,31.24
2018-06-02T12:03:46.042Z,31.22
2018-06-02T12:04:46.007Z,31.25
2018-06-02T12:05:45.951Z,31.07
2018-06-02T12:06:45.902Z,30.96
2018-06-02T12:07:45.860Z,30.90
2018-06-02T12:08:45.816Z,30.63
2018-06-02T12:09:45.776Z,30.25
2018-06-02T12:10:45.720Z,30.00
2018-06-02T12:11:45.685Z,29.72
2018-06-02T12:12:45.633Z,29.84
2018-06-02T12:13:45.584Z,29.88
2018-06-02T12:14:45.542Z,30.13
2018-06-02T12:15:45.489Z,30.47
2018-06-02T12:16:45.442Z,30.68
2018-06-02T12:17:45.391Z,30.72
2018-06-02T12:18:45.343Z,30.73
2018-06-02T12:19:45.294Z,30.63
2018-06-02T12:20:45.254Z,30.16
2018-06-02T12:21:45.206Z,30.05
2018-06-02T12:22:45.155Z,29.82
2018-06-02T12:23:45.110Z,30.02
2018-06-02T12:24:45.096Z,30.05
2018-06-02T12:25:45.007Z,29.91
2018-06-02T12:26:44.967Z,29.78
2018-06-02T12:27:44.916Z,29.69
2018-06-02T12:28:44.864Z,29.97
2018-06-02T12:29:44.815Z,29.97
2018-06-02T12:30:44.766Z,29.86
2018-06-02T12:31:44.717Z,29.97
2018-06-02T12:32:44.670Z,29.93
2018-06-02T12:33:44.619Z,29.86
2018-06-02T12:34:44.593Z,29.78
2018-06-02T12:35:44.520Z,29.94
2018-06-02T12:36:44.469Z,30.31
2018-06-02T12:37:44.418Z,30.39
2018-06-02T12:38:44.371Z,30.35
2018-06-02T12:39:44.322Z,30.27
2018-06-02T12:40:44.274Z,30.50
2018-06-02T12:41:44.220Z,30.61
2018-06-02T12:42:44.170Z,30.48
2018-06-02T12:43:44.122Z,30.53
2018-06-02T12:44:44.073Z,30.34
2018-06-02T12:45:44.023Z,30.46
2018-06-02T12:46:43.977Z,30.47
2018-06-02T12:47:43.933Z,30.32
2018-06-02T12:48:43.874Z,30.62
2018-06-02T12:49:43.826Z,30.44
2018-06-02T12:50:43.775Z,30.66
2018-06-02T12:51:43.729Z,31.43
2018-06-02T12:52:43.676Z,31.97
2018-06-02T12:53:43.630Z,32.48